createdAt,value
2019-05-13T00:00:40.148Z,76.01
2019-05-13T00:01:39.962Z,75.72
2019-05-13T00:02:39.951Z,75.43
2019-05-13T00:03:39.808Z,75.43
2019-05-13T00:04:39.760Z,75.34
2019-05-13T00:05:39.648Z,75.34
2019-05-13T00:06:53.263Z,74.87
2019-05-13T00:07:39.489Z,74.96
2019-05-13T00:08:39.483Z,74.96
2019-05-13T00:09:39.329Z,74.87
2019-05-13T00:10:39.259Z,74.67
2019-05-13T00:11:39.171Z,74.77
2019-05-13T00:12:39.199Z,74.58
2019-05-13T00:13:39.013Z,74.58
2019-05-13T00:14:38.940Z,75.53
2019-05-13T00:15:38.851Z,74.96
2019-05-13T00:16:38.821Z,74.87
2019-05-13T00:17:38.696Z,75.05
2019-05-13T00:18:38.731Z,74.87
2019-05-13T00:19:38.536Z,74.77
2019-05-13T00:20:38.543Z,74.58
2019-05-13T00:21:38.379Z,74.39
2019-05-13T00:22:38.307Z,74.48
2019-05-13T00:23:38.218Z,74.48
2019-05-13T00:24:38.286Z,74.67
2019-05-13T00:25:38.069Z,74.87
2019-05-13T00:26:38.068Z,74.58
2019-05-13T00:27:37.902Z,74.87
2019-05-13T00:28:37.877Z,75.15
2019-05-13T00:29:37.744Z,74.87
2019-05-13T00:30:37.684Z,75.05
2019-05-13T00:31:37.585Z,74.96
2019-05-13T00:32:37.598Z,75.15
2019-05-13T00:33:38.333Z,74.87
2019-05-13T00:34:37.404Z,75.49
2019-05-13T00:35:37.265Z,75.53
2019-05-13T00:36:37.212Z,75.68
2019-05-13T00:37:37.126Z,76.16
2019-05-13T00:38:37.126Z,75.78
2019-05-13T00:39:36.952Z,76.35
2019-05-13T00:40:36.932Z,75.96
2019-05-13T00:41:36.794Z,76.25
2019-05-13T00:42:36.743Z,76.35
2019-05-13T00:43:36.630Z,76.25
2019-05-13T00:44:36.564Z,76.54
2019-05-13T00:45:36.473Z,77.20
2019-05-13T00:46:36.463Z,76.63
2019-05-13T00:47:36.315Z,76.92
2019-05-13T00:48:36.280Z,77.30
2019-05-13T00:49:36.158Z,77.20
2019-05-13T00:50:36.186Z,77.68
2019-05-13T00:51:35.998Z,78.25
2019-05-13T00:52:35.993Z,78.63
2019-05-13T00:53:35.839Z,78.82
2019-05-13T00:54:35.804Z,78.82
2019-05-13T00:55:35.681Z,79.49
2019-05-13T00:56:35.715Z,79.68
2019-05-13T00:57:35.521Z,80.30
2019-05-13T00:58:35.526Z,80.34
2019-05-13T00:59:35.365Z,80.21
2019-05-13T01:00:35.335Z,80.49
2019-05-13T01:01:35.207Z,80.21
2019-05-13T01:02:35.275Z,80.40
2019-05-13T01:03:35.047Z,80.49
2019-05-13T01:04:35.074Z,80.58
2019-05-13T01:05:34.887Z,80.58
2019-05-13T01:06:34.866Z,81.44
2019-05-13T01:07:34.726Z,81.44
2019-05-13T01:08:34.674Z,81.35
2019-05-13T01:09:34.571Z,81.35
2019-05-13T01:10:34.853Z,80.58
2019-05-13T01:11:34.434Z,80.77
2019-05-13T01:12:34.631Z,80.68
2019-05-13T01:13:34.393Z,80.40
2019-05-13T01:14:34.460Z,80.68
2019-05-13T01:15:34.568Z,80.87
2019-05-13T01:16:34.190Z,81.16
2019-05-13T01:17:34.094Z,81.25
2019-05-13T01:18:34.211Z,81.06
2019-05-13T01:19:34.405Z,80.96
2019-05-13T01:20:34.486Z,81.63
2019-05-13T01:21:34.515Z,81.73
2019-05-13T01:22:34.420Z,81.82
2019-05-13T01:23:34.412Z,81.35
2019-05-13T01:24:33.933Z,81.16
2019-05-13T01:25:33.768Z,82.10
2019-05-13T01:26:33.756Z,82.20
2019-05-13T01:27:33.492Z,82.68
2019-05-13T01:28:34.494Z,82.58
2019-05-13T01:29:34.416Z,81.73
2019-05-13T01:30:34.531Z,82.01
2019-05-13T01:31:34.389Z,81.54
2019-05-13T01:32:34.288Z,82.29
2019-05-13T01:33:34.880Z,82.58
2019-05-13T01:34:33.971Z,82.39
2019-05-13T01:35:34.244Z,82.35
2019-05-13T01:36:34.035Z,82.64
2019-05-13T01:37:42.257Z,82.73
2019-05-13T01:38:34.060Z,82.96
2019-05-13T01:39:34.668Z,82.82
2019-05-13T01:40:34.480Z,82.92
2019-05-13T01:41:33.389Z,82.73
2019-05-13T01:42:33.652Z,82.64
2019-05-13T01:43:33.534Z,83.78
2019-05-13T01:44:33.582Z,83.59
2019-05-13T01:45:33.683Z,83.49
2019-05-13T01:46:31.620Z,84.16
2019-05-13T01:47:31.564Z,84.34
2019-05-13T01:48:33.271Z,84.34
2019-05-13T01:49:33.731Z,84.82
2019-05-13T01:50:33.172Z,84.44
2019-05-13T01:51:33.470Z,84.53
2019-05-13T01:52:31.135Z,84.72
2019-05-13T01:53:33.444Z,84.34
2019-05-13T01:54:30.985Z,84.63
2019-05-13T01:55:30.899Z,84.53
2019-05-13T01:56:30.810Z,85.30
2019-05-13T01:57:30.811Z,85.30
2019-05-13T01:58:30.653Z,84.91
2019-05-13T01:59:30.624Z,84.72
2019-05-13T02:00:30.493Z,84.91
2019-05-13T02:01:30.537Z,84.91
2019-05-13T02:02:30.331Z,84.34
2019-05-13T02:03:30.344Z,84.59
2019-05-13T02:04:30.180Z,84.68
2019-05-13T02:05:30.153Z,85.06
2019-05-13T02:06:30.016Z,84.78
2019-05-13T02:07:29.965Z,84.97
2019-05-13T02:08:29.848Z,84.97
2019-05-13T02:09:29.875Z,84.78
2019-05-13T02:10:29.694Z,84.87
2019-05-13T02:11:29.680Z,85.25
2019-05-13T02:12:29.533Z,85.16
2019-05-13T02:13:29.486Z,85.16
2019-05-13T02:14:29.371Z,85.35
2019-05-13T02:15:29.398Z,85.25
2019-05-13T02:16:29.213Z,85.16
2019-05-13T02:17:29.211Z,84.87
2019-05-13T02:18:29.048Z,84.78
2019-05-13T02:19:29.019Z,85.25
2019-05-13T02:20:28.887Z,85.25
2019-05-13T02:21:28.940Z,84.87
2019-05-13T02:22:28.727Z,84.78
2019-05-13T02:23:28.739Z,84.68
2019-05-13T02:24:28.568Z,84.87
2019-05-13T02:25:28.552Z,85.25
2019-05-13T02:26:28.407Z,85.53
2019-05-13T02:27:28.334Z,85.16
2019-05-13T02:28:28.244Z,85.35
2019-05-13T02:29:28.266Z,85.35
2019-05-13T02:30:28.096Z,85.53
2019-05-13T02:31:41.555Z,85.53
2019-05-13T02:32:27.929Z,85.53
2019-05-13T02:33:27.888Z,85.91
2019-05-13T02:34:27.766Z,85.72
2019-05-13T02:35:27.806Z,85.82
2019-05-13T02:36:27.602Z,86.11
2019-05-13T02:37:29.582Z,86.20
2019-05-13T02:38:30.818Z,86.68
2019-05-13T02:39:27.417Z,86.96
2019-05-13T02:40:27.292Z,86.96
2019-05-13T02:41:27.227Z,87.34
2019-05-13T02:42:27.122Z,88.15
2019-05-13T02:43:27.144Z,87.96
2019-05-13T02:44:26.961Z,88.20
2019-05-13T02:45:26.949Z,88.34
2019-05-13T02:46:26.816Z,88.72
2019-05-13T02:47:26.758Z,89.10
2019-05-13T02:48:26.638Z,89.10
2019-05-13T02:49:26.673Z,89.20
2019-05-13T02:50:26.481Z,88.72
2019-05-13T02:51:26.482Z,88.91
2019-05-13T02:52:26.330Z,88.62
2019-05-13T02:53:26.284Z,88.72
2019-05-13T02:54:26.171Z,88.72
2019-05-13T02:55:26.090Z,88.43
2019-05-13T02:56:25.994Z,88.06
2019-05-13T02:57:26.006Z,88.24
2019-05-13T02:58:25.835Z,87.87
2019-05-13T02:59:25.819Z,88.15
2019-05-13T03:00:25.676Z,88.15
2019-05-13T03:01:25.627Z,88.15
2019-05-13T03:02:25.510Z,88.34
2019-05-13T03:03:25.539Z,88.15
2019-05-13T03:04:25.351Z,87.77
2019-05-13T03:05:25.279Z,87.77
2019-05-13T03:06:25.190Z,87.30
2019-05-13T03:07:25.161Z,87.39
2019-05-13T03:08:39.468Z,86.82
2019-05-13T03:09:24.946Z,86.82
2019-05-13T03:10:24.972Z,87.01
2019-05-13T03:11:24.790Z,86.44
2019-05-13T03:12:24.782Z,86.82
2019-05-13T03:13:24.626Z,86.63
2019-05-13T03:14:24.596Z,86.63
2019-05-13T03:15:24.462Z,86.72
2019-05-13T03:16:24.505Z,86.35
2019-05-13T03:17:24.310Z,86.44
2019-05-13T03:18:24.229Z,86.07
2019-05-13T03:19:24.139Z,86.35
2019-05-13T03:20:24.120Z,86.44
2019-05-13T03:21:23.978Z,86.16
2019-05-13T03:22:23.924Z,86.11
2019-05-13T03:23:23.816Z,85.87
2019-05-13T03:24:23.837Z,85.78
2019-05-13T03:25:23.663Z,86.07
2019-05-13T03:26:23.706Z,86.35
2019-05-13T03:27:25.032Z,86.35
2019-05-13T03:28:23.453Z,86.25
2019-05-13T03:29:23.333Z,86.25
2019-05-13T03:30:25.140Z,86.35
2019-05-13T03:31:26.471Z,85.87
2019-05-13T03:32:26.110Z,86.25
2019-05-13T03:33:28.057Z,85.87
2019-05-13T03:34:26.582Z,86.07
2019-05-13T03:35:27.049Z,85.97
2019-05-13T03:36:26.041Z,85.97
2019-05-13T03:37:26.422Z,85.78
2019-05-13T03:38:22.739Z,85.68
2019-05-13T03:39:22.627Z,86.07
2019-05-13T03:40:23.391Z,86.25
2019-05-13T03:41:22.945Z,85.87
2019-05-13T03:42:22.693Z,85.78
2019-05-13T03:43:22.956Z,85.68
2019-05-13T03:44:23.740Z,85.49
2019-05-13T03:45:22.122Z,85.97
2019-05-13T03:46:22.955Z,85.97
2019-05-13T03:47:23.092Z,85.78
2019-05-13T03:48:23.571Z,86.16
2019-05-13T03:49:23.292Z,85.87
2019-05-13T03:50:22.714Z,85.87
2019-05-13T03:51:22.263Z,85.78
2019-05-13T03:52:22.464Z,86.07
2019-05-13T03:53:23.370Z,85.97
2019-05-13T03:54:22.684Z,85.78
2019-05-13T03:55:23.191Z,85.87
2019-05-13T03:56:23.602Z,85.68
2019-05-13T03:57:23.220Z,85.68
2019-05-13T03:58:23.882Z,85.97
2019-05-13T03:59:22.473Z,85.78
2019-05-13T04:00:23.565Z,85.78
2019-05-13T04:01:22.420Z,85.68
2019-05-13T04:02:22.636Z,85.21
2019-05-13T04:03:22.822Z,86.07
2019-05-13T04:04:23.453Z,85.49
2019-05-13T04:05:22.945Z,85.30
2019-05-13T04:06:23.268Z,85.21
2019-05-13T04:07:23.543Z,85.40
2019-05-13T04:08:22.715Z,85.40
2019-05-13T04:09:29.716Z,85.68
2019-05-13T04:10:23.056Z,85.97
2019-05-13T04:11:22.581Z,85.97
2019-05-13T04:12:22.808Z,86.07
2019-05-13T04:13:23.138Z,86.16
2019-05-13T04:14:22.763Z,86.07
2019-05-13T04:15:23.069Z,86.44
2019-05-13T04:16:23.335Z,86.16
2019-05-13T04:17:19.494Z,86.25
2019-05-13T04:18:23.047Z,86.07
2019-05-13T04:19:22.943Z,86.82
2019-05-13T04:20:22.613Z,86.44
2019-05-13T04:21:19.133Z,86.91
2019-05-13T04:22:19.043Z,86.72
2019-05-13T04:23:19.025Z,86.63
2019-05-13T04:24:18.883Z,86.07
2019-05-13T04:25:18.834Z,86.44
2019-05-13T04:26:18.725Z,86.72
2019-05-13T04:27:18.743Z,86.35
2019-05-13T04:28:18.560Z,86.16
2019-05-13T04:29:18.553Z,86.54
2019-05-13T04:30:18.394Z,86.54
2019-05-13T04:31:18.366Z,86.25
2019-05-13T04:32:18.236Z,86.72
2019-05-13T04:33:18.275Z,86.91
2019-05-13T04:34:18.075Z,87.01
2019-05-13T04:35:18.082Z,86.82
2019-05-13T04:36:17.915Z,86.91
2019-05-13T04:37:17.889Z,86.91
2019-05-13T04:38:17.752Z,87.01
2019-05-13T04:39:38.993Z,87.30
2019-05-13T04:40:17.589Z,87.58
2019-05-13T04:41:17.611Z,87.20
2019-05-13T04:42:17.424Z,87.68
2019-05-13T04:43:17.419Z,87.01
2019-05-13T04:44:17.268Z,86.91
2019-05-13T04:45:17.226Z,86.82
2019-05-13T04:46:17.104Z,87.49
2019-05-13T04:47:17.143Z,87.30
2019-05-13T04:48:16.936Z,87.68
2019-05-13T04:49:16.949Z,87.49
2019-05-13T04:50:16.775Z,87.68
2019-05-13T04:51:16.756Z,87.58
2019-05-13T04:52:16.616Z,87.30
2019-05-13T04:53:16.579Z,87.30
2019-05-13T04:54:16.451Z,87.24
2019-05-13T04:55:16.378Z,87.24
2019-05-13T04:56:16.292Z,86.49
2019-05-13T04:57:16.289Z,86.77
2019-05-13T04:58:16.131Z,86.39
2019-05-13T04:59:16.100Z,85.72
2019-05-13T05:00:16.538Z,86.20
2019-05-13T05:01:16.006Z,86.01
2019-05-13T05:02:15.818Z,86.11
2019-05-13T05:03:22.729Z,86.58
2019-05-13T05:04:24.233Z,86.20
2019-05-13T05:05:15.640Z,86.20
2019-05-13T05:06:15.482Z,86.39
2019-05-13T05:07:15.435Z,86.30
2019-05-13T05:08:15.326Z,85.53
2019-05-13T05:09:15.346Z,85.53
2019-05-13T05:10:23.414Z,85.35
2019-05-13T05:11:15.085Z,85.44
2019-05-13T05:12:15.063Z,85.44
2019-05-13T05:13:14.919Z,85.06
2019-05-13T05:14:14.872Z,86.11
2019-05-13T05:15:14.759Z,85.16
2019-05-13T05:16:14.782Z,85.25
2019-05-13T05:17:14.594Z,85.16
2019-05-13T05:18:14.536Z,85.35
2019-05-13T05:19:14.430Z,85.35
2019-05-13T05:20:14.360Z,84.87
2019-05-13T05:21:14.273Z,83.97
2019-05-13T05:22:14.220Z,83.78
2019-05-13T05:23:14.109Z,82.92
2019-05-13T05:24:14.119Z,82.54
2019-05-13T05:25:13.950Z,82.92
2019-05-13T05:26:15.327Z,82.73
2019-05-13T05:27:13.786Z,82.26
2019-05-13T05:28:13.738Z,82.35
2019-05-13T05:29:13.622Z,81.68
2019-05-13T05:30:13.651Z,81.78
2019-05-13T05:31:13.465Z,81.30
2019-05-13T05:32:13.459Z,81.59
2019-05-13T05:33:13.300Z,82.26
2019-05-13T05:34:13.368Z,81.97
2019-05-13T05:35:13.138Z,81.21
2019-05-13T05:36:13.178Z,80.64
2019-05-13T05:37:12.982Z,81.12
2019-05-13T05:38:12.955Z,80.74
2019-05-13T05:39:12.813Z,80.45
2019-05-13T05:40:12.800Z,80.74
2019-05-13T05:41:12.662Z,80.26
2019-05-13T05:42:12.711Z,80.74
2019-05-13T05:43:12.494Z,80.45
2019-05-13T05:44:12.620Z,80.40
2019-05-13T05:45:12.332Z,80.74
2019-05-13T05:46:12.328Z,81.02
2019-05-13T05:47:12.171Z,81.21
2019-05-13T05:48:12.092Z,81.16
2019-05-13T05:49:12.751Z,81.25
2019-05-13T05:50:12.239Z,81.35
2019-05-13T05:51:13.182Z,81.25
2019-05-13T05:52:12.463Z,81.44
2019-05-13T05:53:11.688Z,81.35
2019-05-13T05:54:14.438Z,80.58
2019-05-13T05:55:11.540Z,80.30
2019-05-13T05:56:11.578Z,80.40
2019-05-13T05:57:12.121Z,80.40
2019-05-13T05:58:12.072Z,80.30
2019-05-13T05:59:12.540Z,80.30
2019-05-13T06:00:11.582Z,80.21
2019-05-13T06:01:11.855Z,80.11
2019-05-13T06:02:12.268Z,79.92
2019-05-13T06:03:13.770Z,79.92
2019-05-13T06:04:12.703Z,79.63
2019-05-13T06:05:12.461Z,79.44
2019-05-13T06:06:12.415Z,79.25
2019-05-13T06:07:11.601Z,78.88
2019-05-13T06:08:11.417Z,78.40
2019-05-13T06:09:12.191Z,77.73
2019-05-13T06:10:11.454Z,77.73
2019-05-13T06:11:11.719Z,77.92
2019-05-13T06:12:12.093Z,77.73
2019-05-13T06:13:12.141Z,78.02
2019-05-13T06:14:11.228Z,78.11
2019-05-13T06:15:12.161Z,77.92
2019-05-13T06:16:12.177Z,77.58
2019-05-13T06:17:11.546Z,77.39
2019-05-13T06:18:11.672Z,77.77
2019-05-13T06:19:11.930Z,77.20
2019-05-13T06:20:13.140Z,77.11
2019-05-13T06:21:09.440Z,76.92
2019-05-13T06:22:09.512Z,77.01
2019-05-13T06:23:11.325Z,76.16
2019-05-13T06:24:11.579Z,76.54
2019-05-13T06:25:09.117Z,75.96
2019-05-13T06:26:09.122Z,75.49
2019-05-13T06:27:08.954Z,75.30
2019-05-13T06:28:09.035Z,74.63
2019-05-13T06:29:08.802Z,74.92
2019-05-13T06:30:08.901Z,74.92
2019-05-13T06:31:08.637Z,73.88
2019-05-13T06:32:19.031Z,73.49
2019-05-13T06:33:08.479Z,73.30
2019-05-13T06:34:08.564Z,73.97
2019-05-13T06:35:08.310Z,73.82
2019-05-13T06:36:08.371Z,74.26
2019-05-13T06:37:08.159Z,74.48
2019-05-13T06:38:08.179Z,74.58
2019-05-13T06:39:07.996Z,74.48
2019-05-13T06:40:07.993Z,73.53
2019-05-13T06:41:11.459Z,72.86
2019-05-13T06:42:07.906Z,72.49
2019-05-13T06:43:07.681Z,72.77
2019-05-13T06:44:07.722Z,72.11
2019-05-13T06:45:07.525Z,72.30
2019-05-13T06:46:07.526Z,72.49
2019-05-13T06:47:07.358Z,72.49
2019-05-13T06:48:07.430Z,73.34
2019-05-13T06:49:07.199Z,72.39
2019-05-13T06:50:07.247Z,72.24
2019-05-13T06:51:07.040Z,71.57
2019-05-13T06:52:06.994Z,71.95
2019-05-13T06:53:08.517Z,72.05
2019-05-13T06:54:06.965Z,71.28
2019-05-13T06:55:06.721Z,71.00
2019-05-13T06:56:06.828Z,71.09
2019-05-13T06:57:06.586Z,72.62
2019-05-13T06:58:06.585Z,72.33
2019-05-13T06:59:06.402Z,71.00
2019-05-13T07:00:06.505Z,70.90
2019-05-13T07:01:06.246Z,69.38
2019-05-13T07:02:06.299Z,69.67
2019-05-13T07:03:06.089Z,69.48
2019-05-13T07:04:06.108Z,69.38
2019-05-13T07:05:05.923Z,69.60
2019-05-13T07:06:05.861Z,69.32
2019-05-13T07:07:14.021Z,69.13
2019-05-13T07:08:05.781Z,68.46
2019-05-13T07:09:05.607Z,67.51
2019-05-13T07:10:05.654Z,68.18
2019-05-13T07:11:17.742Z,68.65
2019-05-13T07:12:05.371Z,68.56
2019-05-13T07:13:05.456Z,68.30
2019-05-13T07:14:05.211Z,68.02
2019-05-13T07:15:05.262Z,68.98
2019-05-13T07:16:05.051Z,69.26
2019-05-13T07:17:05.074Z,67.93
2019-05-13T07:18:04.888Z,67.64
2019-05-13T07:19:04.924Z,68.02
2019-05-13T07:20:04.735Z,67.45
2019-05-13T07:21:04.794Z,66.97
2019-05-13T07:22:04.574Z,67.29
2019-05-13T07:23:04.603Z,65.39
2019-05-13T07:24:04.413Z,64.15
2019-05-13T07:25:04.414Z,66.34
2019-05-13T07:26:04.258Z,66.53
2019-05-13T07:27:04.259Z,67.10
2019-05-13T07:28:04.102Z,66.66
2019-05-13T07:29:04.764Z,66.38
2019-05-13T07:30:03.943Z,64.47
2019-05-13T07:31:03.984Z,62.75
2019-05-13T07:32:03.785Z,60.75
2019-05-13T07:33:03.849Z,62.08
2019-05-13T07:34:03.625Z,63.13
2019-05-13T07:35:04.317Z,62.11
2019-05-13T07:36:03.836Z,61.25
2019-05-13T07:37:03.579Z,60.30
2019-05-13T07:38:03.315Z,60.02
2019-05-13T07:39:03.377Z,60.21
2019-05-13T07:40:03.162Z,60.42
2019-05-13T07:41:03.193Z,60.14
2019-05-13T07:42:05.693Z,59.38
2019-05-13T07:43:03.101Z,59.85
2019-05-13T07:44:02.842Z,59.85
2019-05-13T07:45:02.911Z,59.38
2019-05-13T07:46:02.693Z,57.56
2019-05-13T07:47:03.582Z,59.38
2019-05-13T07:48:02.528Z,60.07
2019-05-13T07:49:02.632Z,57.21
2019-05-13T07:50:02.746Z,55.40
2019-05-13T07:51:04.498Z,54.82
2019-05-13T07:52:02.218Z,56.35
2019-05-13T07:53:02.411Z,56.25
2019-05-13T07:54:02.450Z,55.58
2019-05-13T07:55:02.354Z,57.02
2019-05-13T07:56:02.187Z,56.38
2019-05-13T07:57:02.391Z,55.04
2019-05-13T07:58:02.213Z,53.70
2019-05-13T07:59:02.097Z,54.85
2019-05-13T08:00:02.138Z,56.18
2019-05-13T08:01:02.454Z,55.61
2019-05-13T08:02:02.375Z,54.75
2019-05-13T08:03:01.726Z,54.08
2019-05-13T08:04:02.135Z,53.53
2019-05-13T08:05:02.365Z,52.26
2019-05-13T08:06:01.946Z,52.46
2019-05-13T08:07:02.168Z,52.65
2019-05-13T08:08:02.203Z,53.70
2019-05-13T08:09:01.828Z,55.04
2019-05-13T08:10:03.365Z,53.41
2019-05-13T08:11:01.266Z,52.26
2019-05-13T08:12:09.625Z,53.51
2019-05-13T08:13:02.327Z,56.67
2019-05-13T08:14:01.764Z,55.07
2019-05-13T08:15:03.065Z,55.26
2019-05-13T08:16:01.950Z,55.96
2019-05-13T08:17:02.615Z,54.30
2019-05-13T08:18:02.108Z,54.43
2019-05-13T08:19:01.873Z,54.61
2019-05-13T08:20:02.633Z,53.66
2019-05-13T08:21:01.966Z,53.11
2019-05-13T08:22:02.153Z,51.48
2019-05-13T08:23:02.411Z,50.24
2019-05-13T08:24:02.603Z,51.48
2019-05-13T08:25:02.907Z,50.15
2019-05-13T08:26:02.036Z,49.69
2019-05-13T08:27:01.974Z,49.69
2019-05-13T08:28:01.881Z,49.02
2019-05-13T08:29:03.138Z,48.83
2019-05-13T08:30:01.587Z,48.07
2019-05-13T08:31:01.784Z,47.58
2019-05-13T08:32:02.413Z,48.07
2019-05-13T08:33:01.579Z,48.35
2019-05-13T08:33:59.151Z,48.83
2019-05-13T08:35:06.548Z,49.79
2019-05-13T08:35:59.432Z,46.89
2019-05-13T08:36:58.760Z,46.48
2019-05-13T08:38:01.200Z,48.04
2019-05-13T08:38:58.604Z,47.85
2019-05-13T08:39:58.694Z,47.16
2019-05-13T08:40:58.456Z,49.35
2019-05-13T08:42:11.773Z,49.86
2019-05-13T08:42:58.396Z,52.34
2019-05-13T08:43:58.225Z,49.95
2019-05-13T08:44:58.313Z,50.65
2019-05-13T08:45:58.070Z,50.46
2019-05-13T08:46:58.116Z,48.73
2019-05-13T08:47:57.923Z,48.64
2019-05-13T08:48:58.028Z,48.16
2019-05-13T08:50:00.725Z,48.44
2019-05-13T08:50:57.833Z,47.01
2019-05-13T08:51:57.617Z,46.72
2019-05-13T08:52:57.649Z,45.86
2019-05-13T08:53:57.470Z,45.45
2019-05-13T08:54:57.554Z,45.94
2019-05-13T08:55:57.319Z,45.55
2019-05-13T08:56:57.369Z,45.81
2019-05-13T08:57:57.166Z,46.67
2019-05-13T08:58:57.102Z,46.48
2019-05-13T08:59:57.185Z,46.61
2019-05-13T09:00:58.989Z,46.80
2019-05-13T09:01:57.128Z,47.85
2019-05-13T09:02:56.786Z,47.47
2019-05-13T09:03:56.903Z,46.31
2019-05-13T09:04:56.638Z,46.12
2019-05-13T09:05:56.628Z,44.00
2019-05-13T09:06:56.486Z,44.86
2019-05-13T09:07:56.518Z,45.43
2019-05-13T09:08:56.339Z,45.43
2019-05-13T09:09:56.433Z,44.76
2019-05-13T09:10:57.182Z,44.17
2019-05-13T09:11:56.243Z,44.84
2019-05-13T09:12:56.033Z,44.29
2019-05-13T09:13:56.154Z,44.09
2019-05-13T09:14:55.880Z,42.66
2019-05-13T09:15:55.961Z,43.06
2019-05-13T09:16:55.731Z,45.36
2019-05-13T09:17:55.682Z,45.29
2019-05-13T09:18:55.572Z,44.62
2019-05-13T09:19:55.686Z,45.29
2019-05-13T09:20:55.426Z,45.67
2019-05-13T09:21:55.493Z,44.16
2019-05-13T09:22:55.274Z,43.49
2019-05-13T09:23:55.398Z,44.09
2019-05-13T09:24:55.126Z,43.03
2019-05-13T09:25:55.210Z,42.55
2019-05-13T09:26:54.972Z,44.27
2019-05-13T09:27:55.025Z,45.81
2019-05-13T09:28:54.827Z,46.29
2019-05-13T09:29:54.931Z,43.41
2019-05-13T09:30:54.671Z,40.54
2019-05-13T09:31:54.745Z,39.87
2019-05-13T09:32:54.523Z,40.83
2019-05-13T09:33:54.561Z,39.98
2019-05-13T09:34:54.373Z,43.24
2019-05-13T09:35:54.366Z,43.63
2019-05-13T09:36:54.225Z,43.05
2019-05-13T09:37:54.176Z,42.57
2019-05-13T09:38:54.072Z,42.77
2019-05-13T09:39:54.187Z,42.10
2019-05-13T09:40:53.923Z,42.29
2019-05-13T09:41:53.996Z,42.98
2019-05-13T09:42:55.345Z,43.27
2019-05-13T09:43:53.905Z,41.44
2019-05-13T09:44:53.628Z,42.30
2019-05-13T09:45:53.720Z,38.93
2019-05-13T09:46:53.475Z,40.00
2019-05-13T09:47:53.521Z,40.08
2019-05-13T09:48:53.325Z,39.31
2019-05-13T09:49:54.535Z,42.96
2019-05-13T09:50:53.179Z,42.57
2019-05-13T09:51:53.145Z,41.42
2019-05-13T09:52:53.029Z,41.52
2019-05-13T09:53:53.157Z,40.17
2019-05-13T09:54:52.888Z,39.48
2019-05-13T09:55:52.966Z,39.10
2019-05-13T09:56:52.740Z,38.98
2019-05-13T09:57:52.774Z,40.16
2019-05-13T09:58:52.583Z,41.88
2019-05-13T09:59:52.682Z,41.02
2019-05-13T10:00:53.191Z,39.68
2019-05-13T10:01:52.501Z,40.16
2019-05-13T10:02:52.298Z,42.77
2019-05-13T10:03:57.695Z,41.80
2019-05-13T10:04:52.138Z,39.50
2019-05-13T10:05:52.216Z,37.18
2019-05-13T10:06:51.986Z,38.54
2019-05-13T10:07:52.127Z,39.03
2019-05-13T10:08:52.700Z,40.08
2019-05-13T10:09:52.244Z,41.52
2019-05-13T10:10:52.667Z,41.90
2019-05-13T10:11:52.050Z,40.27
2019-05-13T10:13:08.260Z,39.60
2019-05-13T10:13:52.682Z,38.26
2019-05-13T10:14:51.390Z,36.61
2019-05-13T10:15:51.479Z,37.47
2019-05-13T10:16:51.590Z,38.53
2019-05-13T10:18:01.145Z,39.39
2019-05-13T10:18:52.370Z,42.17
2019-05-13T10:19:52.381Z,44.76
2019-05-13T10:20:52.444Z,43.80
2019-05-13T10:21:52.347Z,41.31
2019-05-13T10:22:52.591Z,38.24
2019-05-13T10:23:50.904Z,38.62
2019-05-13T10:24:51.361Z,39.58
2019-05-13T10:25:52.158Z,39.39
2019-05-13T10:26:51.559Z,38.72
2019-05-13T10:27:50.623Z,37.95
2019-05-13T10:28:50.358Z,38.43
2019-05-13T10:29:51.807Z,39.97
2019-05-13T10:30:53.058Z,42.86
2019-05-13T10:31:51.398Z,42.77
2019-05-13T10:32:52.608Z,41.90
2019-05-13T10:33:51.303Z,40.66
2019-05-13T10:34:51.994Z,39.31
2019-05-13T10:35:52.347Z,37.66
2019-05-13T10:36:51.409Z,38.74
2019-05-13T10:37:52.281Z,37.40
2019-05-13T10:38:51.941Z,36.63
2019-05-13T10:39:51.758Z,38.74
2019-05-13T10:40:51.728Z,39.03
2019-05-13T10:41:52.027Z,38.35
2019-05-13T10:42:49.323Z,39.33
2019-05-13T10:43:51.787Z,38.56
2019-05-13T10:44:51.750Z,39.53
2019-05-13T10:45:49.442Z,41.06
2019-05-13T10:46:51.968Z,37.51
2019-05-13T10:47:51.445Z,37.59
2019-05-13T10:48:48.879Z,41.61
2019-05-13T10:49:48.936Z,41.52
2019-05-13T10:50:48.731Z,40.27
2019-05-13T10:51:48.863Z,39.31
2019-05-13T10:52:48.582Z,39.22
2019-05-13T10:53:48.651Z,40.35
2019-05-13T10:54:48.438Z,40.06
2019-05-13T10:55:48.563Z,40.44
2019-05-13T10:56:48.289Z,41.02
2019-05-13T10:57:48.373Z,41.97
2019-05-13T10:58:48.138Z,42.86
2019-05-13T10:59:48.284Z,44.11
2019-05-13T11:00:47.992Z,44.20
2019-05-13T11:01:48.094Z,42.86
2019-05-13T11:02:47.842Z,43.07
2019-05-13T11:03:47.902Z,45.28
2019-05-13T11:04:47.697Z,41.63
2019-05-13T11:05:47.814Z,42.60
2019-05-13T11:06:47.547Z,42.81
2019-05-13T11:07:47.539Z,42.43
2019-05-13T11:08:47.401Z,42.23
2019-05-13T11:09:47.431Z,41.66
2019-05-13T11:10:47.256Z,43.10
2019-05-13T11:11:47.251Z,42.71
2019-05-13T11:12:47.114Z,40.22
2019-05-13T11:13:55.262Z,40.14
2019-05-13T11:14:51.532Z,42.93
2019-05-13T11:15:46.969Z,41.58
2019-05-13T11:16:46.816Z,40.33
2019-05-13T11:17:46.799Z,41.39
2019-05-13T11:18:46.666Z,41.87
2019-05-13T11:19:46.684Z,39.08
2019-05-13T11:20:46.519Z,37.26
2019-05-13T11:21:50.677Z,36.88
2019-05-13T11:22:46.374Z,39.06
2019-05-13T11:23:46.407Z,37.72
2019-05-13T11:24:46.226Z,36.47
2019-05-13T11:25:46.210Z,37.24
2019-05-13T11:26:46.081Z,38.39
2019-05-13T11:27:46.124Z,38.76
2019-05-13T11:28:45.940Z,36.74
2019-05-13T11:29:45.938Z,37.11
2019-05-13T11:30:45.790Z,36.91
2019-05-13T11:31:45.843Z,38.83
2019-05-13T11:32:45.647Z,39.31
2019-05-13T11:33:45.652Z,40.77
2019-05-13T11:34:45.493Z,41.93
2019-05-13T11:35:45.459Z,40.48
2019-05-13T11:36:45.344Z,42.13
2019-05-13T11:37:45.374Z,41.85
2019-05-13T11:38:45.220Z,40.05
2019-05-13T11:39:45.183Z,38.29
2019-05-13T11:40:45.063Z,37.05
2019-05-13T11:41:45.095Z,36.95
2019-05-13T11:42:44.908Z,34.94
2019-05-13T11:43:44.907Z,34.45
2019-05-13T11:44:44.804Z,34.45
2019-05-13T11:45:44.813Z,34.36
2019-05-13T11:46:44.616Z,36.86
2019-05-13T11:47:44.623Z,37.70
2019-05-13T11:48:44.472Z,33.94
2019-05-13T11:49:44.555Z,34.04
2019-05-13T11:50:50.120Z,36.53
2019-05-13T11:51:44.347Z,39.12
2019-05-13T11:52:44.457Z,40.00
2019-05-13T11:53:44.152Z,40.67
2019-05-13T11:54:44.036Z,41.56
2019-05-13T11:55:44.065Z,38.59
2019-05-13T11:56:49.400Z,39.45
2019-05-13T11:57:44.556Z,35.71
2019-05-13T11:58:43.883Z,36.09
2019-05-13T11:59:43.693Z,35.51
2019-05-13T12:00:43.689Z,37.91
2019-05-13T12:01:43.624Z,39.18
2019-05-13T12:02:50.462Z,37.93
2019-05-13T12:03:43.638Z,36.78
2019-05-13T12:04:43.970Z,36.68
2019-05-13T12:05:43.230Z,37.45
2019-05-13T12:06:48.031Z,35.43
2019-05-13T12:07:43.083Z,33.80
2019-05-13T12:08:50.460Z,33.61
2019-05-13T12:09:42.940Z,32.75
2019-05-13T12:10:44.045Z,33.80
2019-05-13T12:11:42.796Z,36.11
2019-05-13T12:12:43.994Z,35.82
2019-05-13T12:13:42.771Z,35.45
2019-05-13T12:14:56.927Z,35.16
2019-05-13T12:15:49.403Z,33.34
2019-05-13T12:16:42.624Z,33.53
2019-05-13T12:17:42.995Z,34.11
2019-05-13T12:18:43.864Z,33.72
2019-05-13T12:19:42.284Z,31.70
2019-05-13T12:20:42.889Z,30.74
2019-05-13T12:21:46.424Z,31.90
2019-05-13T12:22:42.620Z,32.47
2019-05-13T12:23:42.793Z,33.72
2019-05-13T12:24:42.404Z,34.68
2019-05-13T12:25:43.724Z,35.06
2019-05-13T12:26:43.449Z,36.90
2019-05-13T12:27:42.011Z,35.55
2019-05-13T12:28:42.175Z,33.05
2019-05-13T12:29:42.953Z,31.88
2019-05-13T12:30:41.921Z,33.42
2019-05-13T12:31:41.446Z,36.11
2019-05-13T12:32:43.736Z,35.82
2019-05-13T12:33:44.053Z,36.03
2019-05-13T12:34:45.633Z,38.34
2019-05-13T12:35:41.133Z,37.27
2019-05-13T12:36:43.345Z,37.66
2019-05-13T12:37:42.064Z,35.55
2019-05-13T12:38:44.228Z,34.67
2019-05-13T12:39:43.775Z,36.76
2019-05-13T12:40:42.985Z,38.87
2019-05-13T12:41:42.711Z,38.20
2019-05-13T12:42:46.244Z,35.71
2019-05-13T12:43:42.550Z,35.51
2019-05-13T12:44:59.736Z,35.53
2019-05-13T12:45:43.101Z,34.65
2019-05-13T12:46:42.485Z,36.57
2019-05-13T12:47:43.276Z,35.51
2019-05-13T12:48:40.232Z,37.72
2019-05-13T12:49:43.953Z,38.59
2019-05-13T12:50:43.197Z,39.73
2019-05-13T12:51:43.653Z,39.73